Weather observations for the past three days for
Windom Municipal Airport
Imperial (Metric)
Date Time (cdt) Wind (mph) Vis. (mi.) Weather Sky Cond. Temperature (ºF) Relative Humidity Wind Chill (°F) Heat Index (°F) Pressure Precipitation (in)
Air Dwpt 6 hour altimeter (in) sea level (mb) 1 hr 3 hr 6 hr
Max. Min.
05 07:55 SW 3 7.00 Light Rain OVC003 71.6 69.8 94% 30.04 0.0
05 07:35 Calm 10.00 Thunderstorm in Vicinity OVC003 71.6 69.8 94% 30.02 0.0
05 07:15 Calm 10.00 Overcast OVC003 71.6 69.8 94% 30.01 0.0
05 06:55 E 3 10.00 Mostly Cloudy BKN005 71.6 69.8 94% 30 0.0
05 06:35 Calm 10.00 Light Rain SCT005 71.6 69.8 94% 29.99 0.0
05 06:15 Calm 10.00 Mostly Cloudy BKN005 71.6 69.8 94% 29.99 0.0
05 05:55 E 3 10.00 Overcast OVC005 71.6 69.8 94% 29.99 0.0
05 05:35 E 3 10.00 Mostly Cloudy BKN005 71.6 69.8 94% 29.99 0.0
05 05:15 E 6 10.00 Mostly Cloudy BKN007 71.6 69.8 94% 29.97 0.0
05 04:55 E 5 10.00 Overcast OVC007 69.8 69.8 100% 29.97 0.0
05 04:35 NE 8 10.00 Partly Cloudy SCT007 69.8 69.8 100% 29.97 0.0
05 04:15 NE 6 10.00 Fair CLR 69.8 69.8 100% 29.97 0.0
05 03:55 NE 7 7.00 Fair CLR 71.6 69.8 94% 29.97 0.0
05 03:35 NE 5 7.00 Fair CLR 71.6 69.8 94% 29.95 0.0
05 03:15 NE 7 7.00 Fair CLR 71.6 69.8 94% 29.96 0.0
05 02:55 NE 7 7.00 Fair CLR 71.6 69.8 94% 29.97 0.0
05 02:35 NE 6 10.00 Fair CLR 71.6 71.6 100% 29.98 0.0
05 02:15 NE 6 10.00 Fair CLR 71.6 71.6 100% 29.97 0.0
05 01:55 NE 6 10.00 Fair CLR 73.4 71.6 94% 29.97 0.0
05 01:35 NE 3 10.00 Fair CLR 73.4 71.6 94% 29.97 0.0
05 01:15 E 5 10.00 Fair CLR 71.6 69.8 94% 29.97 0.0
05 00:55 NE 3 10.00 Fair CLR 73.4 71.6 94% 29.98 0.0
05 00:35 NE 5 10.00 Fair CLR 73.4 71.6 94% 29.97 0.0
05 00:15 E 5 10.00 Fair CLR 73.4 71.6 94% 29.96 0.0
04 23:55 E 5 10.00 Fair CLR 73.4 71.6 94% 29.97 0.0
04 23:35 E 6 10.00 Partly Cloudy SCT014 73.4 71.6 94% 29.96 0.0
04 23:15 E 5 10.00 Partly Cloudy SCT014 75.2 71.6 89% 75 29.97 0.0
04 22:55 NE 6 10.00 Fair CLR 75.2 73.4 94% 74 29.98 0.0
04 22:35 NE 7 10.00 Fair CLR 75.2 73.4 94% 74 29.97 0.0
04 22:15 NE 7 10.00 Fair CLR 75.2 73.4 94% 74 29.96 0.0
04 21:55 NE 7 10.00 Fair CLR 75.2 73.4 94% 74 29.96 0.0
04 21:35 NE 5 10.00 Fair CLR 77 73.4 89% 78 29.96 0.0
04 21:15 NE 6 10.00 Fair CLR 78.8 73.4 84% 82 29.95 0.0
04 20:55 NE 5 10.00 Fair CLR 78.8 73.4 84% 82 29.94 0.0
04 20:35 NE 6 10.00 Fair CLR 78.8 73.4 84% 82 29.94 0.0
04 20:15 NE 3 10.00 Fair CLR 80.6 73.4 79% 85 29.93 0.0
04 19:55 NE 7 10.00 Fair CLR 80.6 73.4 79% 85 29.93 0.0
04 19:35 NE 7 10.00 Fair CLR 82.4 73.4 74% 88 29.93 0.0
04 19:15 NE 7 10.00 Fair CLR 84.2 75.2 74% 92 29.93 0.0
04 18:55 N 6 10.00 Fair CLR 87.8 75.2 66% 98 29.92 0.0
04 18:35 NE 6 10.00 Fair CLR 89.6 75.2 63% 100 29.92 0.0
04 18:15 NE 7 10.00 Fair CLR 89.6 75.2 63% 100 29.92 0.0
04 17:55 NE 7 10.00 Fair CLR 91.4 75.2 59% 103 29.92 0.0
04 17:35 NE 7 10.00 Fair CLR 91.4 75.2 59% 103 29.91 0.0
04 17:15 NE 8 10.00 Fair CLR 91.4 75.2 59% 103 29.9 0.0
04 16:55 NE 8 10.00 Fair CLR 91.4 75.2 59% 103 29.9 0.0
04 16:35 NE 9 10.00 Fair CLR 91.4 75.2 59% 103 29.9 0.0
04 16:15 NE 7 10.00 Fair CLR 91.4 75.2 59% 103 29.91 0.0
04 15:55 NE 3 10.00 Fair CLR 91.4 73.4 56% 100 29.91 0.0
04 15:35 NE 7 10.00 Fair CLR 91.4 73.4 56% 100 29.91 0.0
04 15:15 N 6 10.00 Fair CLR 91.4 73.4 56% 100 29.91 0.0
04 14:55 N 10 10.00 Fair CLR 91.4 73.4 56% 100 29.91 0.0
04 14:35 NE 6 10.00 Fair CLR 91.4 73.4 56% 100 29.91 0.0
04 14:15 NE 5 10.00 Fair CLR 89.6 73.4 59% 98 29.91 0.0
04 13:55 NE 9 10.00 Fair CLR 89.6 73.4 59% 98 29.91 0.0
04 13:35 NE 7 10.00 Fair CLR 89.6 71.6 55% 96 29.91 0.0
04 13:15 NE 9 10.00 Fair CLR 89.6 71.6 55% 96 29.91 0.0
04 12:55 N 8 10.00 Fair CLR 89.6 71.6 55% 96 29.91 0.0
04 12:35 N 6 10.00 Fair CLR 89.6 71.6 55% 96 29.91 0.0
04 12:15 N 8 10.00 Fair CLR 87.8 71.6 59% 94 29.91 0.0
04 11:55 N 3 10.00 Fair CLR 87.8 73.4 62% 96 29.91 0.0
04 11:35 N 3 10.00 Fair CLR 86 73.4 66% 93 29.91 0.0
04 11:15 NW 7 10.00 Fair CLR 84.2 73.4 70% 91 29.9 0.0
04 10:55 N 7 10.00 Fair CLR 84.2 73.4 70% 91 29.9 0.0
04 10:35 N 6 10.00 Fair CLR 84.2 71.6 66% 90 29.89 0.0
04 10:15 N 6 10.00 Fair CLR 82.4 71.6 70% 87 29.89 0.0
04 09:55 N 3 10.00 Fair CLR 80.6 71.6 74% 85 29.88 0.0
04 09:35 Calm 10.00 Fair CLR 80.6 71.6 74% 85 29.88 0.0
04 09:15 Calm 10.00 Fair CLR 78.8 71.6 79% 82 29.89 0.0
04 08:55 Calm 10.00 Fair CLR 78.8 71.6 79% 82 29.88 0.0
04 08:35 Calm 10.00 Fair CLR 77 73.4 89% 78 29.88 0.0
04 08:15 S 3 10.00 Fair CLR 75.2 71.6 89% 75 29.88 0.0
04 07:55 Calm 10.00 Fair CLR 73.4 71.6 94% 29.87 0.0
04 07:35 Calm 10.00 Fair CLR 71.6 69.8 94% 29.88 0.0
04 07:15 Calm 10.00 Fair CLR 71.6 69.8 94% 29.87 0.0
04 06:55 NW 6 7.00 Fair CLR 69.8 66.2 88% 29.87 0.0
04 06:35 Calm 10.00 Fair CLR 69.8 68 94% 29.85 0.0
04 06:15 Calm 10.00 Fair CLR 69.8 68 94% 29.85 0.0
04 05:55 W 3 10.00 Fair CLR 71.6 69.8 94% 29.85 0.0
04 05:35 W 5 10.00 Fair CLR 71.6 69.8 94% 29.84 0.0
04 05:15 SW 6 10.00 Fair CLR 71.6 71.6 100% 29.84 0.0
04 04:55 SW 3 10.00 Fair CLR 73.4 71.6 94% 29.84 0.0
04 04:35 Calm 10.00 Fair CLR 73.4 71.6 94% 29.84 0.0
04 04:15 Calm 10.00 Fair CLR 73.4 71.6 94% 29.84 0.0
04 03:55 SW 3 10.00 Fair CLR 75.2 71.6 89% 75 29.84 0.0
04 03:35 SW 5 10.00 Fair CLR 75.2 71.6 89% 75 29.83 0.0
04 03:15 SW 3 10.00 Fair CLR 75.2 71.6 89% 75 29.83 0.0
04 02:55 SW 5 10.00 Fair CLR 75.2 71.6 89% 75 29.83 0.0
04 02:35 S 5 10.00 Fair CLR 75.2 71.6 89% 75 29.84 0.0
04 02:15 SW 5 10.00 Fair CLR 75.2 71.6 89% 75 29.83 0.0
04 01:55 Calm 10.00 Fair CLR 73.4 71.6 94% 29.83 0.0
04 01:35 Calm 10.00 Fair CLR 75.2 73.4 94% 74 29.83 0.0
04 01:15 Calm 10.00 Fair CLR 75.2 71.6 89% 75 29.83 0.0
04 00:55 Calm 10.00 Fair CLR 75.2 73.4 94% 74 29.83 0.0
04 00:35 Calm 10.00 Fair CLR 77 73.4 89% 78 29.83 0.0
04 00:15 S 5 10.00 Fair CLR 78.8 73.4 84% 82 29.82 0.0
03 23:55 S 5 10.00 Fair CLR 78.8 73.4 84% 82 29.82 0.0
03 23:35 S 3 10.00 Fair CLR 78.8 73.4 84% 82 29.82 0.0
03 23:15 S 3 10.00 Fair CLR 80.6 73.4 79% 85 29.82 0.0
03 22:55 S 3 10.00 Fair CLR 80.6 73.4 79% 85 29.82 0.0
03 22:35 S 3 10.00 Fair CLR 80.6 73.4 79% 85 29.82 0.0
03 22:15 S 3 10.00 Fair CLR 80.6 73.4 79% 85 29.82 0.0
03 21:55 S 3 10.00 Fair CLR 80.6 73.4 79% 85 29.82 0.0
03 21:35 S 3 10.00 Fair CLR 80.6 73.4 79% 85 29.82 0.0
03 21:15 S 5 10.00 Fair CLR 82.4 73.4 74% 88 29.82 0.0
03 20:55 S 5 10.00 Fair CLR 82.4 73.4 74% 88 29.81 0.0
03 20:35 S 6 10.00 Fair CLR 82.4 73.4 74% 88 29.8 0.0
03 20:15 S 7 10.00 Fair CLR 84.2 73.4 70% 91 29.8 0.0
03 19:55 S 7 10.00 Fair CLR 84.2 73.4 70% 91 29.79 0.0
03 19:35 S 8 10.00 Fair CLR 86 73.4 66% 93 29.79 0.0
03 19:15 S 9 10.00 Fair CLR 87.8 73.4 62% 96 29.78 0.0
03 18:55 S 12 10.00 Fair CLR 87.8 73.4 62% 96 29.78 0.0
03 18:35 S 6 10.00 Fair CLR 87.8 73.4 62% 96 29.78 0.0
03 18:15 S 6 10.00 Fair CLR 87.8 73.4 62% 96 29.77 0.0
03 17:55 SW 7 10.00 Light Rain CLR 84.2 73.4 70% 91 29.78 0.0
03 17:35 S 8 10.00 Light Rain SCT060 82.4 73.4 74% 88 29.76 0.0
03 17:15 S 12 10.00 Fair CLR 84.2 71.6 66% 90 29.78 0.0
03 16:55 S 15 G 23 10.00 Fair CLR 87.8 71.6 59% 94 29.77 0.0
03 16:35 S 14 G 18 10.00 Fair CLR 87.8 71.6 59% 94 29.75 0.0
03 16:15 S 14 G 18 10.00 Fair CLR 86 71.6 62% 92 29.74 0.0
03 15:55 S 13 G 18 10.00 Fair CLR 87.8 71.6 59% 94 29.75 0.0
03 15:35 S 13 10.00 Fair CLR 86 71.6 62% 92 29.77 0.0
03 15:15 S 18 G 26 10.00 Fair CLR 87.8 69.8 55% 93 29.78 0.0
03 14:55 S 15 G 22 10.00 Fair CLR 87.8 69.8 55% 93 29.79 0.0
03 14:35 S 16 G 25 10.00 Fair CLR 87.8 69.8 55% 93 29.77 0.0
03 14:15 S 17 G 25 10.00 Fair CLR 87.8 69.8 55% 93 29.78 0.0
03 13:55 S 15 G 23 10.00 Thunderstorm in Vicinity CLR 87.8 69.8 55% 93 29.76 0.0
03 13:35 S 18 G 28 10.00 Fair CLR 87.8 69.8 55% 93 29.77 0.0
03 13:15 S 14 G 26 10.00 Fair CLR 86 69.8 59% 91 29.76 0.0
03 12:55 S 20 G 23 10.00 Fair CLR 87.8 69.8 55% 93 29.79 0.0
03 12:35 S 23 G 28 10.00 Fair and Breezy CLR 87.8 68 52% 91 29.8 0.0
03 12:15 S 15 G 22 10.00 Fair CLR 87.8 69.8 55% 93 29.79 0.0
03 11:55 S 16 G 22 10.00 Fair CLR 86 68 55% 89 29.8 0.0
03 11:35 S 15 G 24 10.00 Fair CLR 82.4 69.8 66% 86 29.8 0.0
03 11:15 S 15 G 29 10.00 Fair CLR 84.2 69.8 62% 88 29.8 0.0
03 10:55 S 17 G 24 10.00 Fair CLR 86 69.8 59% 91 29.79 0.0
03 10:35 S 15 G 26 10.00 Fair CLR 86 69.8 59% 91 29.8 0.0
03 10:15 S 17 G 23 10.00 Fair CLR 82.4 68 62% 85 29.79 0.0
03 09:55 S 13 G 20 10.00 Fair CLR 82.4 68 62% 85 29.8 0.0
03 09:35 S 14 G 24 10.00 Fair CLR 80.6 68 66% 83 29.8 0.0
03 09:15 S 13 G 16 10.00 Fair CLR 80.6 66.2 62% 83 29.8 0.0
03 08:55 S 9 G 17 10.00 Fair CLR 78.8 66.2 65% 81 29.81 0.0
03 08:35 SE 14 G 18 10.00 Fair CLR 77 66.2 69% 79 29.8 0.0
03 08:15 SE 16 10.00 Fair CLR 77 66.2 69% 79 29.81 0.0
03 07:55 SE 10 10.00 Fair CLR 75.2 64.4 69% 77 29.81 0.0
03 07:35 SE 8 10.00 Fair CLR 73.4 64.4 74% 29.81 0.0
03 07:15 SE 10 G 17 10.00 Fair CLR 73.4 64.4 74% 29.81 0.0
03 06:55 SE 12 G 24 10.00 Fair CLR 73.4 64.4 74% 29.81 0.0
03 06:35 SE 15 10.00 Fair CLR 73.4 64.4 74% 29.81 0.0
03 06:15 SE 12 10.00 Fair CLR 73.4 64.4 74% 29.81 0.0
03 05:55 SE 9 10.00 Fair CLR 73.4 64.4 74% 29.81 0.0
03 05:35 SE 6 10.00 Fair CLR 73.4 64.4 74% 29.81 0.0
03 05:15 SE 7 10.00 Fair CLR 75.2 64.4 69% 77 29.81 0.0
03 04:55 SE 8 10.00 Partly Cloudy SCT110 75.2 64.4 69% 77 29.81 0.0
03 04:35 SE 8 10.00 Partly Cloudy SCT110 75.2 64.4 69% 77 29.81 0.0
03 04:15 S 10 10.00 Mostly Cloudy BKN100 75.2 64.4 69% 77 29.82 0.0
03 03:55 S 8 10.00 Light Rain BKN100 75.2 64.4 69% 77 29.82 0.0
03 03:35 S 8 G 16 10.00 Thunderstorm Light Rain BKN100 78.8 60.8 54% 80 29.83 0.0
03 03:15 SW 7 10.00 Partly Cloudy SCT100 75.2 62.6 65% 77 29.83 0.0
03 02:55 S 10 G 17 10.00 Fair CLR 78.8 64.4 61% 81 29.83 0.0
03 02:35 SW 10 10.00 Partly Cloudy SCT095 78.8 69.8 74% 81 29.84 0.0
03 02:15 S 7 10.00 Thunderstorm in Vicinity SCT095 77 73.4 89% 78 29.85 0.0
03 01:55 S 3 10.00 Fair CLR 75.2 73.4 94% 74 29.84 0.0
03 01:35 Calm 10.00 Fair CLR 73.4 71.6 94% 29.84 0.0
03 01:15 Calm 10.00 Fair CLR 75.2 71.6 89% 75 29.83 0.0
03 00:55 Calm 10.00 Fair CLR 73.4 71.6 94% 29.83 0.0
03 00:35 Calm 10.00 Fair CLR 73.4 71.6 94% 29.84 0.0
03 00:15 Calm 10.00 Fair CLR 75.2 71.6 89% 75 29.84 0.0
02 23:55 SE 3 10.00 Fair CLR 75.2 71.6 89% 75 29.84 0.0
02 23:35 SE 3 10.00 Fair CLR 75.2 71.6 89% 75 29.85 0.0
02 23:15 Calm 10.00 Fair CLR 75.2 73.4 94% 74 29.85 0.0
02 22:55 Calm 10.00 Fair CLR 75.2 71.6 89% 75 29.85 0.0
02 22:35 Calm 10.00 Fair CLR 75.2 71.6 89% 75 29.85 0.0
02 22:15 Calm 10.00 Fair CLR 75.2 71.6 89% 75 29.85 0.0
02 21:55 Calm 10.00 Fair CLR 75.2 71.6 89% 75 29.85 0.0
02 21:35 Calm 10.00 Fair CLR 75.2 71.6 89% 75 29.85 0.0
02 21:15 Calm 10.00 Fair CLR 78.8 71.6 79% 82 29.85 0.0
02 20:55 Calm 10.00 Fair CLR 78.8 71.6 79% 82 29.85 0.0
02 20:35 Calm 10.00 Fair CLR 78.8 71.6 79% 82 29.84 0.0
02 20:15 Calm 10.00 Fair CLR 80.6 71.6 74% 85 29.84 0.0
02 19:55 SE 3 10.00 Fair CLR 82.4 71.6 70% 87 29.83 0.0
02 19:35 SE 5 10.00 Fair CLR 84.2 69.8 62% 88 29.83 0.0
02 19:15 SE 5 10.00 Fair CLR 86 69.8 59% 91 29.83 0.0
02 18:55 S 7 10.00 Fair CLR 87.8 69.8 55% 93 29.83 0.0
02 18:35 SE 7 10.00 Fair CLR 87.8 69.8 55% 93 29.83 0.0
02 18:15 SE 7 10.00 Fair CLR 87.8 71.6 59% 94 29.83 0.0
02 17:55 SE 9 10.00 Fair CLR 87.8 69.8 55% 93 29.83 0.0
02 17:35 SE 9 10.00 Fair CLR 89.6 69.8 52% 95 29.83 0.0
02 17:15 SE 9 10.00 Fair CLR 89.6 68 49% 93 29.84 0.0
02 16:55 SE 8 10.00 Fair CLR 89.6 68 49% 93 29.84 0.0
02 16:35 SE 8 10.00 Fair CLR 89.6 66.2 46% 92 29.84 0.0
02 16:15 SE 7 10.00 Fair CLR 89.6 66.2 46% 92 29.85 0.0
02 15:55 SE 12 10.00 Fair CLR 89.6 66.2 46% 92 29.85 0.0
02 15:35 SE 10 10.00 Fair CLR 89.6 66.2 46% 92 29.85 0.0
02 15:15 SE 8 10.00 Fair CLR 89.6 66.2 46% 92 29.86 0.0
02 14:55 S 8 10.00 Fair CLR 89.6 66.2 46% 92 29.86 0.0
02 14:35 S 10 G 17 10.00 Fair CLR 87.8 66.2 49% 90 29.87 0.0
02 14:15 SE 12 10.00 Fair CLR 87.8 66.2 49% 90 29.87 0.0
02 13:55 S 8 10.00 Fair CLR 87.8 66.2 49% 90 29.88 0.0
02 13:35 S 9 10.00 Fair CLR 87.8 66.2 49% 90 29.89 0.0
02 13:15 S 9 10.00 Fair CLR 87.8 66.2 49% 90 29.89 0.0
02 12:55 S 8 10.00 Fair CLR 87.8 69.8 55% 93 29.9 0.0
02 12:35 SE 6 10.00 Fair CLR 84.2 69.8 62% 88 29.91 0.0
02 12:15 E 6 10.00 Fair CLR 84.2 71.6 66% 90 29.91 0.0
02 11:55 E 7 10.00 Fair CLR 82.4 71.6 70% 87 29.91 0.0
02 11:35 E 3 10.00 Fair CLR 82.4 71.6 70% 87 29.91 0.0
02 11:15 Calm 10.00 Fair CLR 80.6 69.8 70% 84 29.91 0.0
02 10:55 Calm 10.00 Partly Cloudy SCT060 80.6 69.8 70% 84 29.92 0.0
02 10:35 Calm 10.00 Partly Cloudy SCT060 78.8 69.8 74% 81 29.92 0.0
02 10:15 NW 8 10.00 Mostly Cloudy BKN060 78.8 69.8 74% 81 29.92 0.0
02 09:55 Calm 10.00 Partly Cloudy SCT060 78.8 69.8 74% 81 29.91 0.0
02 09:35 SE 3 10.00 Fair CLR 77 69.8 79% 79 29.9 0.0
02 09:15 S 5 10.00 Fair CLR 75.2 68 78% 76 29.9 0.0
02 08:55 Calm 10.00 Fair CLR 73.4 68 83% 29.89 0.0
02 08:35 Calm 10.00 Fair CLR 71.6 68 88% 29.9 0.0
02 08:15 Calm 10.00 Fair CLR 69.8 66.2 88% 29.9 0.0
Date Time (cdt) Wind (mph) Vis. (mi.) Weather Sky Cond. Air Dwpt Max. Min. Relative Humidity Wind Chill (°F) Heat Index (°F) altimeter (in) sea level (mb) 1 hr 3 hr 6 hr
6 hour
Temperature (ºF) Pressure Precipitation (in)